sensor_id;sensor_type;location;lat;lon;timestamp;temperature;humidity
423;DHT22;198;48.752;9.180;2023-02-01T00:01:26;3.60;99.90
423;DHT22;198;48.752;9.180;2023-02-01T00:03:52;3.60;99.90
423;DHT22;198;48.752;9.180;2023-02-01T00:06:18;3.60;99.90
423;DHT22;198;48.752;9.180;2023-02-01T00:08:43;3.60;99.90
423;DHT22;198;48.752;9.180;2023-02-01T00:11:11;3.50;99.90
423;DHT22;198;48.752;9.180;2023-02-01T00:13:39;3.50;99.90
423;DHT22;198;48.752;9.180;2023-02-01T00:16:07;3.50;99.90
423;DHT22;198;48.752;9.180;2023-02-01T00:18:32;3.50;99.90
423;DHT22;198;48.752;9.180;2023-02-01T00:20:58;3.60;99.90
423;DHT22;198;48.752;9.180;2023-02-01T00:23:24;3.50;99.90
423;DHT22;198;48.752;9.180;2023-02-01T00:25:49;3.50;99.90
423;DHT22;198;48.752;9.180;2023-02-01T00:28:15;3.60;99.90
423;DHT22;198;48.752;9.180;2023-02-01T00:30:40;3.60;99.90
423;DHT22;198;48.752;9.180;2023-02-01T00:33:06;3.50;99.90
423;DHT22;198;48.752;9.180;2023-02-01T00:35:34;3.50;99.90
423;DHT22;198;48.752;9.180;2023-02-01T00:37:59;3.50;99.90
423;DHT22;198;48.752;9.180;2023-02-01T00:40:25;3.60;99.90
423;DHT22;198;48.752;9.180;2023-02-01T00:42:51;3.60;99.90
423;DHT22;198;48.752;9.180;2023-02-01T00:45:17;3.60;99.90
423;DHT22;198;48.752;9.180;2023-02-01T00:47:42;3.60;99.90
423;DHT22;198;48.752;9.180;2023-02-01T00:50:08;3.60;99.90
423;DHT22;198;48.752;9.180;2023-02-01T00:52:34;3.60;99.90
423;DHT22;198;48.752;9.180;2023-02-01T00:54:59;3.60;99.90
423;DHT22;198;48.752;9.180;2023-02-01T00:57:25;3.60;99.90
423;DHT22;198;48.752;9.180;2023-02-01T00:59:50;3.70;99.90
423;DHT22;198;48.752;9.180;2023-02-01T01:02:16;3.70;99.90
423;DHT22;198;48.752;9.180;2023-02-01T01:04:41;3.70;99.90
423;DHT22;198;48.752;9.180;2023-02-01T01:07:07;3.70;99.90
423;DHT22;198;48.752;9.180;2023-02-01T01:09:32;3.70;99.90
423;DHT22;198;48.752;9.180;2023-02-01T01:11:58;3.80;99.90
423;DHT22;198;48.752;9.180;2023-02-01T01:14:28;3.80;99.90
423;DHT22;198;48.752;9.180;2023-02-01T01:16:54;3.80;99.90
423;DHT22;198;48.752;9.180;2023-02-01T01:19:19;3.90;99.90
423;DHT22;198;48.752;9.180;2023-02-01T01:21:45;3.90;99.90
423;DHT22;198;48.752;9.180;2023-02-01T01:24:10;3.80;99.90
423;DHT22;198;48.752;9.180;2023-02-01T01:26:36;3.80;99.90
423;DHT22;198;48.752;9.180;2023-02-01T01:29:01;3.80;99.90
423;DHT22;198;48.752;9.180;2023-02-01T01:31:27;3.80;99.90
423;DHT22;198;48.752;9.180;2023-02-01T01:33:54;3.80;99.90
423;DHT22;198;48.752;9.180;2023-02-01T01:36:20;3.80;99.90
423;DHT22;198;48.752;9.180;2023-02-01T01:38:46;3.90;99.90
423;DHT22;198;48.752;9.180;2023-02-01T01:41:18;3.90;99.90
423;DHT22;198;48.752;9.180;2023-02-01T01:46:40;4.00;99.90
423;DHT22;198;48.752;9.180;2023-02-01T01:49:18;4.00;99.90
423;DHT22;198;48.752;9.180;2023-02-01T01:51:49;4.00;99.90
423;DHT22;198;48.752;9.180;2023-02-01T01:54:23;4.00;99.90
423;DHT22;198;48.752;9.180;2023-02-01T01:57:00;4.10;99.90
423;DHT22;198;48.752;9.180;2023-02-01T01:59:27;4.10;99.90
423;DHT22;198;48.752;9.180;2023-02-01T02:01:53;4.10;99.90
423;DHT22;198;48.752;9.180;2023-02-01T02:04:19;4.20;99.90
423;DHT22;198;48.752;9.180;2023-02-01T02:07:09;4.20;99.90
423;DHT22;198;48.752;9.180;2023-02-01T02:09:37;4.30;99.90
423;DHT22;198;48.752;9.180;2023-02-01T02:12:03;4.30;99.90
423;DHT22;198;48.752;9.180;2023-02-01T02:14:29;4.30;99.90
423;DHT22;198;48.752;9.180;2023-02-01T02:17:07;4.30;99.90
423;DHT22;198;48.752;9.180;2023-02-01T02:22:56;4.30;99.90
423;DHT22;198;48.752;9.180;2023-02-01T02:39:53;4.30;99.90
423;DHT22;198;48.752;9.180;2023-02-01T02:42:54;4.30;99.90
423;DHT22;198;48.752;9.180;2023-02-01T02:45:54;4.30;99.90
423;DHT22;198;48.752;9.180;2023-02-01T02:48:51;4.30;99.90
423;DHT22;198;48.752;9.180;2023-02-01T02:51:27;4.20;99.90
423;DHT22;198;48.752;9.180;2023-02-01T02:54:15;4.10;99.90
423;DHT22;198;48.752;9.180;2023-02-01T02:57:03;4.10;99.90
423;DHT22;198;48.752;9.180;2023-02-01T02:59:50;4.10;99.90
423;DHT22;198;48.752;9.180;2023-02-01T03:02:35;4.00;99.90
423;DHT22;198;48.752;9.180;2023-02-01T03:05:19;4.00;99.90
423;DHT22;198;48.752;9.180;2023-02-01T03:08:08;3.90;99.90
423;DHT22;198;48.752;9.180;2023-02-01T03:10:42;4.00;99.90
423;DHT22;198;48.752;9.180;2023-02-01T03:16:16;3.90;99.90
423;DHT22;198;48.752;9.180;2023-02-01T03:21:28;3.90;99.90
423;DHT22;198;48.752;9.180;2023-02-01T03:24:07;4.00;99.90
423;DHT22;198;48.752;9.180;2023-02-01T03:26:38;3.90;99.90
423;DHT22;198;48.752;9.180;2023-02-01T03:29:12;3.90;99.90
423;DHT22;198;48.752;9.180;2023-02-01T03:31:39;3.90;99.90
423;DHT22;198;48.752;9.180;2023-02-01T03:34:04;3.90;99.90
423;DHT22;198;48.752;9.180;2023-02-01T03:36:40;4.00;99.90
423;DHT22;198;48.752;9.180;2023-02-01T03:44:38;4.00;99.90
423;DHT22;198;48.752;9.180;2023-02-01T03:52:06;3.90;99.90
423;DHT22;198;48.752;9.180;2023-02-01T03:54:34;3.90;99.90
423;DHT22;198;48.752;9.180;2023-02-01T03:57:04;3.90;99.90
423;DHT22;198;48.752;9.180;2023-02-01T03:59:32;3.90;99.90
423;DHT22;198;48.752;9.180;2023-02-01T04:01:57;3.90;99.90
423;DHT22;198;48.752;9.180;2023-02-01T04:04:22;3.90;99.90
423;DHT22;198;48.752;9.180;2023-02-01T04:06:51;4.00;99.90
423;DHT22;198;48.752;9.180;2023-02-01T04:09:17;4.00;99.90
423;DHT22;198;48.752;9.180;2023-02-01T04:11:43;4.00;99.90
423;DHT22;198;48.752;9.180;2023-02-01T04:14:09;4.00;99.90
423;DHT22;198;48.752;9.180;2023-02-01T04:16:35;4.10;99.90
423;DHT22;198;48.752;9.180;2023-02-01T04:19:01;4.20;99.90
423;DHT22;198;48.752;9.180;2023-02-01T04:21:27;4.20;99.90
423;DHT22;198;48.752;9.180;2023-02-01T04:23:53;4.30;99.90
423;DHT22;198;48.752;9.180;2023-02-01T04:26:20;4.40;99.90
423;DHT22;198;48.752;9.180;2023-02-01T04:28:46;4.40;99.90
423;DHT22;198;48.752;9.180;2023-02-01T04:31:16;4.40;99.90
423;DHT22;198;48.752;9.180;2023-02-01T04:33:42;4.30;99.90
423;DHT22;198;48.752;9.180;2023-02-01T04:36:08;4.30;99.90
423;DHT22;198;48.752;9.180;2023-02-01T04:38:34;4.30;99.90
423;DHT22;198;48.752;9.180;2023-02-01T04:40:59;4.30;99.90
423;DHT22;198;48.752;9.180;2023-02-01T04:43:25;4.30;99.90
423;DHT22;198;48.752;9.180;2023-02-01T04:45:51;4.30;99.90
423;DHT22;198;48.752;9.180;2023-02-01T04:48:18;4.40;99.90
423;DHT22;198;48.752;9.180;2023-02-01T04:50:45;4.30;99.90
423;DHT22;198;48.752;9.180;2023-02-01T04:53:13;4.30;99.90
423;DHT22;198;48.752;9.180;2023-02-01T04:55:39;4.40;99.90
423;DHT22;198;48.752;9.180;2023-02-01T04:58:05;4.30;99.90
423;DHT22;198;48.752;9.180;2023-02-01T05:00:30;4.30;99.90
423;DHT22;198;48.752;9.180;2023-02-01T05:02:56;4.30;99.90
423;DHT22;198;48.752;9.180;2023-02-01T05:05:22;4.30;99.90
423;DHT22;198;48.752;9.180;2023-02-01T05:07:47;4.30;99.90
423;DHT22;198;48.752;9.180;2023-02-01T05:10:13;4.30;99.90
423;DHT22;198;48.752;9.180;2023-02-01T05:12:38;4.30;99.90
423;DHT22;198;48.752;9.180;2023-02-01T05:15:22;4.30;99.90
423;DHT22;198;48.752;9.180;2023-02-01T05:17:48;4.30;99.90
423;DHT22;198;48.752;9.180;2023-02-01T05:20:13;4.30;99.90
423;DHT22;198;48.752;9.180;2023-02-01T05:22:39;4.30;99.90
423;DHT22;198;48.752;9.180;2023-02-01T05:25:06;4.30;99.90
423;DHT22;198;48.752;9.180;2023-02-01T05:27:31;4.30;99.90
423;DHT22;198;48.752;9.180;2023-02-01T05:29:57;4.30;99.90
423;DHT22;198;48.752;9.180;2023-02-01T05:32:22;4.20;99.90
423;DHT22;198;48.752;9.180;2023-02-01T05:34:48;4.30;99.90
423;DHT22;198;48.752;9.180;2023-02-01T05:37:13;4.30;99.90
423;DHT22;198;48.752;9.180;2023-02-01T05:39:39;4.30;99.90
423;DHT22;198;48.752;9.180;2023-02-01T05:42:04;4.30;99.90
423;DHT22;198;48.752;9.180;2023-02-01T05:44:30;4.30;99.90
423;DHT22;198;48.752;9.180;2023-02-01T05:46:55;4.30;99.90
423;DHT22;198;48.752;9.180;2023-02-01T05:49:21;4.30;99.90
423;DHT22;198;48.752;9.180;2023-02-01T05:51:46;4.20;99.90
423;DHT22;198;48.752;9.180;2023-02-01T05:54:12;4.20;99.90
423;DHT22;198;48.752;9.180;2023-02-01T05:56:38;4.20;99.90
423;DHT22;198;48.752;9.180;2023-02-01T05:59:03;4.10;99.90
423;DHT22;198;48.752;9.180;2023-02-01T06:01:29;4.00;99.90
423;DHT22;198;48.752;9.180;2023-02-01T06:03:54;4.00;99.90
423;DHT22;198;48.752;9.180;2023-02-01T06:06:20;4.00;99.90
423;DHT22;198;48.752;9.180;2023-02-01T06:08:45;3.90;99.90
423;DHT22;198;48.752;9.180;2023-02-01T06:11:11;3.90;99.90
423;DHT22;198;48.752;9.180;2023-02-01T06:13:36;3.90;99.90
423;DHT22;198;48.752;9.180;2023-02-01T06:16:04;3.70;99.90
423;DHT22;198;48.752;9.180;2023-02-01T06:18:32;3.70;99.90
423;DHT22;198;48.752;9.180;2023-02-01T06:20:58;3.70;99.90
423;DHT22;198;48.752;9.180;2023-02-01T06:23:30;3.70;99.90
423;DHT22;198;48.752;9.180;2023-02-01T06:26:04;3.70;99.90
423;DHT22;198;48.752;9.180;2023-02-01T06:28:31;3.60;99.90
423;DHT22;198;48.752;9.180;2023-02-01T06:30:57;3.60;99.90
423;DHT22;198;48.752;9.180;2023-02-01T06:33:24;3.70;99.90
423;DHT22;198;48.752;9.180;2023-02-01T06:35:56;3.70;99.90
423;DHT22;198;48.752;9.180;2023-02-01T06:38:22;3.70;99.90
423;DHT22;198;48.752;9.180;2023-02-01T06:40:52;3.70;99.90
423;DHT22;198;48.752;9.180;2023-02-01T06:43:18;3.70;99.90
423;DHT22;198;48.752;9.180;2023-02-01T06:45:43;3.80;99.90
423;DHT22;198;48.752;9.180;2023-02-01T06:48:09;3.80;99.90
423;DHT22;198;48.752;9.180;2023-02-01T06:50:34;3.90;99.90
423;DHT22;198;48.752;9.180;2023-02-01T06:53:00;3.90;99.90
423;DHT22;198;48.752;9.180;2023-02-01T06:55:26;3.90;99.90
423;DHT22;198;48.752;9.180;2023-02-01T06:57:55;4.00;99.90
423;DHT22;198;48.752;9.180;2023-02-01T07:00:22;4.10;99.90
423;DHT22;198;48.752;9.180;2023-02-01T07:02:47;4.10;99.90
423;DHT22;198;48.752;9.180;2023-02-01T07:05:13;4.20;99.90
423;DHT22;198;48.752;9.180;2023-02-01T07:07:39;4.20;99.90
423;DHT22;198;48.752;9.180;2023-02-01T07:10:04;4.20;99.90
423;DHT22;198;48.752;9.180;2023-02-01T07:12:30;4.20;99.90
423;DHT22;198;48.752;9.180;2023-02-01T07:14:55;4.30;99.90
423;DHT22;198;48.752;9.180;2023-02-01T07:17:22;4.30;99.90
423;DHT22;198;48.752;9.180;2023-02-01T07:19:47;4.30;99.90
423;DHT22;198;48.752;9.180;2023-02-01T07:22:16;4.30;99.90
423;DHT22;198;48.752;9.180;2023-02-01T07:24:41;4.30;99.90
423;DHT22;198;48.752;9.180;2023-02-01T07:27:07;4.30;99.90
423;DHT22;198;48.752;9.180;2023-02-01T07:29:32;4.40;99.90
423;DHT22;198;48.752;9.180;2023-02-01T07:31:58;4.40;99.90
423;DHT22;198;48.752;9.180;2023-02-01T07:34:24;4.30;99.90
423;DHT22;198;48.752;9.180;2023-02-01T07:36:49;4.30;99.90
423;DHT22;198;48.752;9.180;2023-02-01T07:39:15;4.30;99.90
423;DHT22;198;48.752;9.180;2023-02-01T07:41:40;4.30;99.90
423;DHT22;198;48.752;9.180;2023-02-01T07:44:06;4.30;99.90
423;DHT22;198;48.752;9.180;2023-02-01T07:46:31;4.30;99.90
423;DHT22;198;48.752;9.180;2023-02-01T07:48:57;4.30;99.90
423;DHT22;198;48.752;9.180;2023-02-01T07:51:22;4.30;99.90
423;DHT22;198;48.752;9.180;2023-02-01T07:53:48;4.40;99.90
423;DHT22;198;48.752;9.180;2023-02-01T07:56:18;4.40;99.90
423;DHT22;198;48.752;9.180;2023-02-01T07:58:48;4.50;99.90
423;DHT22;198;48.752;9.180;2023-02-01T08:01:21;4.50;99.90
423;DHT22;198;48.752;9.180;2023-02-01T08:03:51;4.50;99.90
423;DHT22;198;48.752;9.180;2023-02-01T08:06:18;4.50;99.90
423;DHT22;198;48.752;9.180;2023-02-01T08:08:45;4.60;99.90
423;DHT22;198;48.752;9.180;2023-02-01T08:11:12;4.60;99.90
423;DHT22;198;48.752;9.180;2023-02-01T08:13:38;4.60;99.90
423;DHT22;198;48.752;9.180;2023-02-01T08:16:05;4.70;99.90
423;DHT22;198;48.752;9.180;2023-02-01T08:18:32;4.70;99.90
423;DHT22;198;48.752;9.180;2023-02-01T08:21:03;4.70;99.90
423;DHT22;198;48.752;9.180;2023-02-01T08:23:29;4.60;99.90
423;DHT22;198;48.752;9.180;2023-02-01T08:25:54;4.70;99.90
423;DHT22;198;48.752;9.180;2023-02-01T08:28:20;4.60;99.90
423;DHT22;198;48.752;9.180;2023-02-01T08:30:45;4.70;99.90
423;DHT22;198;48.752;9.180;2023-02-01T08:33:11;4.70;99.90
423;DHT22;198;48.752;9.180;2023-02-01T08:35:38;4.70;99.90
423;DHT22;198;48.752;9.180;2023-02-01T08:38:03;4.70;99.90
423;DHT22;198;48.752;9.180;2023-02-01T08:40:29;4.80;99.90
423;DHT22;198;48.752;9.180;2023-02-01T08:42:55;4.90;99.90
423;DHT22;198;48.752;9.180;2023-02-01T08:45:24;5.00;99.90
423;DHT22;198;48.752;9.180;2023-02-01T08:47:54;5.20;99.90
423;DHT22;198;48.752;9.180;2023-02-01T08:50:20;5.30;99.90
423;DHT22;198;48.752;9.180;2023-02-01T08:52:46;5.30;99.90
423;DHT22;198;48.752;9.180;2023-02-01T08:55:13;5.30;99.90
423;DHT22;198;48.752;9.180;2023-02-01T08:57:39;5.40;99.90
423;DHT22;198;48.752;9.180;2023-02-01T09:00:07;5.40;99.90
423;DHT22;198;48.752;9.180;2023-02-01T09:02:33;5.40;99.90
423;DHT22;198;48.752;9.180;2023-02-01T09:04:59;5.40;99.90
423;DHT22;198;48.752;9.180;2023-02-01T09:07:24;5.50;99.90
423;DHT22;198;48.752;9.180;2023-02-01T09:09:50;5.50;99.90
423;DHT22;198;48.752;9.180;2023-02-01T09:12:15;5.70;99.90
423;DHT22;198;48.752;9.180;2023-02-01T09:14:41;5.70;99.90
423;DHT22;198;48.752;9.180;2023-02-01T09:17:07;5.80;99.90
423;DHT22;198;48.752;9.180;2023-02-01T09:19:32;5.80;99.90
423;DHT22;198;48.752;9.180;2023-02-01T09:21:58;5.80;99.90
423;DHT22;198;48.752;9.180;2023-02-01T09:24:23;5.80;99.90
423;DHT22;198;48.752;9.180;2023-02-01T09:26:49;5.70;99.90
423;DHT22;198;48.752;9.180;2023-02-01T09:29:15;5.60;99.90
423;DHT22;198;48.752;9.180;2023-02-01T09:31:41;5.50;99.90
423;DHT22;198;48.752;9.180;2023-02-01T09:34:07;5.40;99.90
423;DHT22;198;48.752;9.180;2023-02-01T09:36:33;5.50;99.90
423;DHT22;198;48.752;9.180;2023-02-01T09:38:59;5.60;99.90
423;DHT22;198;48.752;9.180;2023-02-01T09:46:39;6.10;99.90
423;DHT22;198;48.752;9.180;2023-02-01T09:49:18;6.20;99.90
423;DHT22;198;48.752;9.180;2023-02-01T09:51:48;6.20;99.90
423;DHT22;198;48.752;9.180;2023-02-01T09:54:20;6.20;99.90
423;DHT22;198;48.752;9.180;2023-02-01T09:56:51;6.30;99.90
423;DHT22;198;48.752;9.180;2023-02-01T09:59:43;6.40;99.90
423;DHT22;198;48.752;9.180;2023-02-01T10:02:17;6.40;99.90
423;DHT22;198;48.752;9.180;2023-02-01T10:04:43;6.40;99.90
423;DHT22;198;48.752;9.180;2023-02-01T10:10:01;6.60;99.90
423;DHT22;198;48.752;9.180;2023-02-01T10:26:18;6.40;99.90
423;DHT22;198;48.752;9.180;2023-02-01T10:28:48;6.30;99.90
423;DHT22;198;48.752;9.180;2023-02-01T10:31:14;6.30;99.90
423;DHT22;198;48.752;9.180;2023-02-01T10:33:49;6.30;99.90
423;DHT22;198;48.752;9.180;2023-02-01T10:38:54;6.50;99.90
423;DHT22;198;48.752;9.180;2023-02-01T10:41:21;6.60;99.90
423;DHT22;198;48.752;9.180;2023-02-01T10:43:53;6.70;99.90
423;DHT22;198;48.752;9.180;2023-02-01T10:46:20;6.60;99.90
423;DHT22;198;48.752;9.180;2023-02-01T10:48:47;6.60;99.90
423;DHT22;198;48.752;9.180;2023-02-01T10:51:19;6.50;99.90
423;DHT22;198;48.752;9.180;2023-02-01T10:54:01;6.40;99.90
423;DHT22;198;48.752;9.180;2023-02-01T10:56:28;6.40;99.90
423;DHT22;198;48.752;9.180;2023-02-01T10:59:18;6.50;99.90
423;DHT22;198;48.752;9.180;2023-02-01T11:01:46;6.30;99.90
423;DHT22;198;48.752;9.180;2023-02-01T11:04:14;6.30;99.90
423;DHT22;198;48.752;9.180;2023-02-01T11:06:43;6.30;99.90
423;DHT22;198;48.752;9.180;2023-02-01T11:09:16;6.30;99.90
423;DHT22;198;48.752;9.180;2023-02-01T11:14:18;6.40;99.90
423;DHT22;198;48.752;9.180;2023-02-01T11:16:49;6.40;99.90
423;DHT22;198;48.752;9.180;2023-02-01T11:19:16;6.60;99.90
423;DHT22;198;48.752;9.180;2023-02-01T11:21:42;6.70;99.90
423;DHT22;198;48.752;9.180;2023-02-01T11:26:49;6.50;99.90
423;DHT22;198;48.752;9.180;2023-02-01T11:29:17;6.50;99.90
423;DHT22;198;48.752;9.180;2023-02-01T11:31:47;6.50;99.90
423;DHT22;198;48.752;9.180;2023-02-01T11:34:17;6.60;99.90
423;DHT22;198;48.752;9.180;2023-02-01T11:36:49;6.60;99.90
423;DHT22;198;48.752;9.180;2023-02-01T11:41:43;6.50;99.90
423;DHT22;198;48.752;9.180;2023-02-01T11:44:36;6.50;99.90
423;DHT22;198;48.752;9.180;2023-02-01T11:47:28;6.70;99.90
423;DHT22;198;48.752;9.180;2023-02-01T11:50:02;6.60;99.90
423;DHT22;198;48.752;9.180;2023-02-01T12:06:50;7.10;99.90
423;DHT22;198;48.752;9.180;2023-02-01T12:26:20;6.50;99.90
423;DHT22;198;48.752;9.180;2023-02-01T12:32:05;6.80;99.90
423;DHT22;198;48.752;9.180;2023-02-01T12:43:22;6.10;99.90
423;DHT22;198;48.752;9.180;2023-02-01T12:46:04;6.10;99.90
423;DHT22;198;48.752;9.180;2023-02-01T12:51:04;6.10;99.90
423;DHT22;198;48.752;9.180;2023-02-01T12:56:11;6.10;99.90
423;DHT22;198;48.752;9.180;2023-02-01T12:58:40;6.10;99.90
423;DHT22;198;48.752;9.180;2023-02-01T13:02:04;6.20;99.90
423;DHT22;198;48.752;9.180;2023-02-01T13:07:20;6.10;99.90
423;DHT22;198;48.752;9.180;2023-02-01T13:12:43;6.30;99.90
423;DHT22;198;48.752;9.180;2023-02-01T13:15:29;6.30;99.90
423;DHT22;198;48.752;9.180;2023-02-01T13:18:01;6.20;99.90
423;DHT22;198;48.752;9.180;2023-02-01T13:20:34;6.10;99.90
423;DHT22;198;48.752;9.180;2023-02-01T13:23:07;6.10;99.90
423;DHT22;198;48.752;9.180;2023-02-01T13:25:40;6.00;99.90
423;DHT22;198;48.752;9.180;2023-02-01T13:28:16;6.00;99.90
423;DHT22;198;48.752;9.180;2023-02-01T13:39:18;5.90;99.90
423;DHT22;198;48.752;9.180;2023-02-01T13:41:57;5.90;99.90
423;DHT22;198;48.752;9.180;2023-02-01T13:44:30;5.90;99.90
423;DHT22;198;48.752;9.180;2023-02-01T13:47:01;5.90;99.90
423;DHT22;198;48.752;9.180;2023-02-01T13:49:36;5.90;99.90
423;DHT22;198;48.752;9.180;2023-02-01T13:52:03;6.00;99.90
423;DHT22;198;48.752;9.180;2023-02-01T13:54:39;6.00;99.90
423;DHT22;198;48.752;9.180;2023-02-01T13:57:13;6.00;99.90
423;DHT22;198;48.752;9.180;2023-02-01T13:59:52;6.10;99.90
423;DHT22;198;48.752;9.180;2023-02-01T14:10:57;6.00;99.90
423;DHT22;198;48.752;9.180;2023-02-01T14:21:46;6.00;99.90
423;DHT22;198;48.752;9.180;2023-02-01T14:24:22;6.00;99.90
423;DHT22;198;48.752;9.180;2023-02-01T14:26:53;5.90;99.90
423;DHT22;198;48.752;9.180;2023-02-01T14:29:30;5.90;99.90
423;DHT22;198;48.752;9.180;2023-02-01T14:32:06;5.80;99.90
423;DHT22;198;48.752;9.180;2023-02-01T14:39:49;5.90;99.90
423;DHT22;198;48.752;9.180;2023-02-01T14:47:48;5.90;99.90
423;DHT22;198;48.752;9.180;2023-02-01T14:58:19;5.90;99.90
423;DHT22;198;48.752;9.180;2023-02-01T15:00:51;5.80;99.90
423;DHT22;198;48.752;9.180;2023-02-01T15:06:13;5.90;99.90
423;DHT22;198;48.752;9.180;2023-02-01T15:08:45;5.90;99.90
423;DHT22;198;48.752;9.180;2023-02-01T15:11:14;5.90;99.90
423;DHT22;198;48.752;9.180;2023-02-01T15:13:48;5.90;99.90
423;DHT22;198;48.752;9.180;2023-02-01T15:16:16;5.90;99.90
423;DHT22;198;48.752;9.180;2023-02-01T15:18:42;5.90;99.90
423;DHT22;198;48.752;9.180;2023-02-01T15:21:22;5.90;99.90
423;DHT22;198;48.752;9.180;2023-02-01T15:23:48;5.90;99.90
423;DHT22;198;48.752;9.180;2023-02-01T15:26:30;5.90;99.90
423;DHT22;198;48.752;9.180;2023-02-01T15:28:57;5.80;99.90
423;DHT22;198;48.752;9.180;2023-02-01T15:31:41;5.80;99.90
423;DHT22;198;48.752;9.180;2023-02-01T15:34:07;5.80;99.90
423;DHT22;198;48.752;9.180;2023-02-01T15:36:33;5.80;99.90
423;DHT22;198;48.752;9.180;2023-02-01T15:39:14;5.80;99.90
423;DHT22;198;48.752;9.180;2023-02-01T15:42:23;5.80;99.90
423;DHT22;198;48.752;9.180;2023-02-01T15:44:49;5.80;99.90
423;DHT22;198;48.752;9.180;2023-02-01T15:47:22;5.80;99.90
423;DHT22;198;48.752;9.180;2023-02-01T15:49:52;5.80;99.90
423;DHT22;198;48.752;9.180;2023-02-01T15:52:35;5.80;99.90
423;DHT22;198;48.752;9.180;2023-02-01T15:55:04;5.80;99.90
423;DHT22;198;48.752;9.180;2023-02-01T15:57:33;5.70;99.90
423;DHT22;198;48.752;9.180;2023-02-01T16:00:18;5.70;99.90
423;DHT22;198;48.752;9.180;2023-02-01T16:03:04;5.70;99.90
423;DHT22;198;48.752;9.180;2023-02-01T16:05:41;5.70;99.90
423;DHT22;198;48.752;9.180;2023-02-01T16:08:14;5.60;99.90
423;DHT22;198;48.752;9.180;2023-02-01T16:10:45;5.60;99.90
423;DHT22;198;48.752;9.180;2023-02-01T16:13:12;5.70;99.90
423;DHT22;198;48.752;9.180;2023-02-01T16:15:38;5.60;99.90
423;DHT22;198;48.752;9.180;2023-02-01T16:18:04;5.70;99.90
423;DHT22;198;48.752;9.180;2023-02-01T16:20:30;5.70;99.90
423;DHT22;198;48.752;9.180;2023-02-01T16:22:56;5.70;99.90
423;DHT22;198;48.752;9.180;2023-02-01T16:25:22;5.70;99.90
423;DHT22;198;48.752;9.180;2023-02-01T16:27:48;5.70;99.90
423;DHT22;198;48.752;9.180;2023-02-01T16:30:13;5.70;99.90
423;DHT22;198;48.752;9.180;2023-02-01T16:32:39;5.70;99.90
423;DHT22;198;48.752;9.180;2023-02-01T16:35:13;5.80;99.90
423;DHT22;198;48.752;9.180;2023-02-01T16:37:44;5.80;99.90
423;DHT22;198;48.752;9.180;2023-02-01T16:40:16;5.80;99.90
423;DHT22;198;48.752;9.180;2023-02-01T16:42:42;5.80;99.90
423;DHT22;198;48.752;9.180;2023-02-01T16:45:08;5.80;99.90
423;DHT22;198;48.752;9.180;2023-02-01T16:47:36;5.80;99.90
423;DHT22;198;48.752;9.180;2023-02-01T16:50:03;5.80;99.90
423;DHT22;198;48.752;9.180;2023-02-01T16:52:28;5.80;99.90
423;DHT22;198;48.752;9.180;2023-02-01T16:54:54;5.80;99.90
423;DHT22;198;48.752;9.180;2023-02-01T16:57:20;5.80;99.90
423;DHT22;198;48.752;9.180;2023-02-01T16:59:49;5.70;99.90
423;DHT22;198;48.752;9.180;2023-02-01T17:02:19;5.70;99.90
423;DHT22;198;48.752;9.180;2023-02-01T17:04:45;5.70;99.90
423;DHT22;198;48.752;9.180;2023-02-01T17:07:15;5.60;99.90
423;DHT22;198;48.752;9.180;2023-02-01T17:09:41;5.60;99.90
423;DHT22;198;48.752;9.180;2023-02-01T17:12:22;5.50;99.90
423;DHT22;198;48.752;9.180;2023-02-01T17:14:48;5.50;99.90
423;DHT22;198;48.752;9.180;2023-02-01T17:17:15;5.50;99.90
423;DHT22;198;48.752;9.180;2023-02-01T17:19:41;5.40;99.90
423;DHT22;198;48.752;9.180;2023-02-01T17:22:08;5.40;99.90
423;DHT22;198;48.752;9.180;2023-02-01T17:24:33;5.40;99.90
423;DHT22;198;48.752;9.180;2023-02-01T17:26:59;5.40;99.90
423;DHT22;198;48.752;9.180;2023-02-01T17:29:24;5.40;99.90
423;DHT22;198;48.752;9.180;2023-02-01T17:31:54;5.50;99.90
423;DHT22;198;48.752;9.180;2023-02-01T17:34:20;5.50;99.90
423;DHT22;198;48.752;9.180;2023-02-01T17:36:47;5.50;99.90
423;DHT22;198;48.752;9.180;2023-02-01T17:39:14;5.50;99.90
423;DHT22;198;48.752;9.180;2023-02-01T17:42:00;5.50;99.90
423;DHT22;198;48.752;9.180;2023-02-01T17:44:26;5.60;99.90
423;DHT22;198;48.752;9.180;2023-02-01T17:46:51;5.60;99.90
423;DHT22;198;48.752;9.180;2023-02-01T17:49:17;5.50;99.90
423;DHT22;198;48.752;9.180;2023-02-01T17:51:42;5.50;99.90
423;DHT22;198;48.752;9.180;2023-02-01T17:54:11;5.50;99.90
423;DHT22;198;48.752;9.180;2023-02-01T17:56:37;5.50;99.90
423;DHT22;198;48.752;9.180;2023-02-01T17:59:03;5.50;99.90
423;DHT22;198;48.752;9.180;2023-02-01T18:01:28;5.50;99.90
423;DHT22;198;48.752;9.180;2023-02-01T18:03:54;5.50;99.90
423;DHT22;198;48.752;9.180;2023-02-01T18:06:23;5.40;99.90
423;DHT22;198;48.752;9.180;2023-02-01T18:08:50;5.40;99.90
423;DHT22;198;48.752;9.180;2023-02-01T18:11:19;5.40;99.90
423;DHT22;198;48.752;9.180;2023-02-01T18:13:46;5.40;99.90
423;DHT22;198;48.752;9.180;2023-02-01T18:16:26;5.40;99.90
423;DHT22;198;48.752;9.180;2023-02-01T18:18:53;5.30;99.90
423;DHT22;198;48.752;9.180;2023-02-01T18:21:20;5.30;99.90
423;DHT22;198;48.752;9.180;2023-02-01T18:23:46;5.40;99.90
423;DHT22;198;48.752;9.180;2023-02-01T18:26:14;5.40;99.90
423;DHT22;198;48.752;9.180;2023-02-01T18:28:40;5.40;99.90
423;DHT22;198;48.752;9.180;2023-02-01T18:31:12;5.40;99.90
423;DHT22;198;48.752;9.180;2023-02-01T18:33:41;5.40;99.90
423;DHT22;198;48.752;9.180;2023-02-01T18:36:11;5.50;99.90
423;DHT22;198;48.752;9.180;2023-02-01T18:38:37;5.50;99.90
423;DHT22;198;48.752;9.180;2023-02-01T18:41:02;5.50;99.90
423;DHT22;198;48.752;9.180;2023-02-01T18:43:29;5.50;99.90
423;DHT22;198;48.752;9.180;2023-02-01T18:45:55;5.50;99.90
423;DHT22;198;48.752;9.180;2023-02-01T18:48:20;5.50;99.90
423;DHT22;198;48.752;9.180;2023-02-01T18:50:46;5.60;99.90
423;DHT22;198;48.752;9.180;2023-02-01T18:53:18;5.60;99.90
423;DHT22;198;48.752;9.180;2023-02-01T18:55:47;5.60;99.90
423;DHT22;198;48.752;9.180;2023-02-01T18:58:14;5.50;99.90
423;DHT22;198;48.752;9.180;2023-02-01T19:00:41;5.60;99.90
423;DHT22;198;48.752;9.180;2023-02-01T19:03:08;5.50;99.90
423;DHT22;198;48.752;9.180;2023-02-01T19:05:34;5.50;99.90
423;DHT22;198;48.752;9.180;2023-02-01T19:08:00;5.60;99.90
423;DHT22;198;48.752;9.180;2023-02-01T19:10:25;5.60;99.90
423;DHT22;198;48.752;9.180;2023-02-01T19:12:52;5.60;99.90
423;DHT22;198;48.752;9.180;2023-02-01T19:15:22;5.60;99.90
423;DHT22;198;48.752;9.180;2023-02-01T19:17:50;5.60;99.90
423;DHT22;198;48.752;9.180;2023-02-01T19:20:18;5.60;99.90
423;DHT22;198;48.752;9.180;2023-02-01T19:22:44;5.70;99.90
423;DHT22;198;48.752;9.180;2023-02-01T19:25:15;5.70;99.90
423;DHT22;198;48.752;9.180;2023-02-01T19:27:40;5.70;99.90
423;DHT22;198;48.752;9.180;2023-02-01T19:30:07;5.60;99.90
423;DHT22;198;48.752;9.180;2023-02-01T19:32:32;5.60;99.90
423;DHT22;198;48.752;9.180;2023-02-01T19:34:58;5.50;99.90
423;DHT22;198;48.752;9.180;2023-02-01T19:37:24;5.50;99.90
423;DHT22;198;48.752;9.180;2023-02-01T19:39:49;5.50;99.90
423;DHT22;198;48.752;9.180;2023-02-01T19:42:15;5.40;99.90
423;DHT22;198;48.752;9.180;2023-02-01T19:44:41;5.40;99.90
423;DHT22;198;48.752;9.180;2023-02-01T19:47:06;5.40;99.90
423;DHT22;198;48.752;9.180;2023-02-01T19:49:33;5.40;99.90
423;DHT22;198;48.752;9.180;2023-02-01T19:51:58;5.30;99.90
423;DHT22;198;48.752;9.180;2023-02-01T19:54:24;5.40;99.90